createdAt,value
2023-01-08T00:03:45.280Z,101919.63
2023-01-08T00:08:43.602Z,101922.19
2023-01-08T00:13:42.793Z,101922.13
2023-01-08T00:18:40.626Z,101922.06
2023-01-08T00:23:38.556Z,101916.00
2023-01-08T00:28:37.182Z,101925.41
2023-01-08T00:33:36.738Z,101921.19
2023-01-08T00:38:34.576Z,101908.38
2023-01-08T00:43:32.567Z,101911.84
2023-01-08T00:48:31.211Z,101909.28
2023-01-08T00:53:30.427Z,101915.94
2023-01-08T00:58:28.237Z,101913.34
2023-01-08T01:03:26.027Z,101904.75
2023-01-08T01:08:23.861Z,101914.13
2023-01-08T01:13:23.056Z,101912.31
2023-01-08T01:18:20.883Z,101907.22
2023-01-08T01:23:18.779Z,101902.97
2023-01-08T01:28:17.845Z,101896.13
2023-01-08T01:33:17.069Z,101895.25
2023-01-08T01:38:15.474Z,101892.72
2023-01-08T01:43:14.396Z,101886.72
2023-01-08T01:48:15.151Z,101896.19
2023-01-08T01:53:18.885Z,101894.47
2023-01-08T01:58:18.233Z,101886.75
2023-01-08T02:03:16.541Z,101884.28
2023-01-08T02:08:21.553Z,101890.31
2023-01-08T02:13:24.127Z,101881.84
2023-01-08T02:18:25.353Z,101875.03
2023-01-08T02:23:29.161Z,101871.66
2023-01-08T02:28:29.891Z,101872.53
2023-01-08T02:33:29.122Z,101869.88
2023-01-08T02:38:27.676Z,101874.91
2023-01-08T02:43:28.859Z,101878.31
2023-01-08T02:48:33.831Z,101883.44
2023-01-08T02:53:33.851Z,101881.69
2023-01-08T02:58:33.229Z,101869.63
2023-01-08T03:03:33.236Z,101874.75
2023-01-08T03:08:33.070Z,101879.84
2023-01-08T03:13:33.539Z,101881.53
2023-01-08T03:18:36.711Z,101888.28
2023-01-08T03:23:36.405Z,101889.06
2023-01-08T03:28:36.177Z,101889.84
2023-01-08T03:33:36.499Z,101888.03
2023-01-08T03:38:37.939Z,101887.94
2023-01-08T03:43:35.793Z,101888.03
2023-01-08T03:48:36.514Z,101878.78
2023-01-08T03:53:34.301Z,101879.50
2023-01-08T03:58:33.958Z,101865.75
2023-01-08T04:03:31.784Z,101866.50
2023-01-08T04:08:31.054Z,101868.97
2023-01-08T04:13:28.929Z,101878.31
2023-01-08T04:18:26.739Z,101879.13
2023-01-08T04:23:24.585Z,101878.13
2023-01-08T04:28:24.869Z,101868.50
2023-01-08T04:33:22.690Z,101865.38
2023-01-08T04:38:20.542Z,101862.03
2023-01-08T04:43:18.380Z,101845.97
2023-01-08T04:48:17.596Z,101849.56
2023-01-08T04:53:15.438Z,101852.28
2023-01-08T04:58:13.350Z,101858.13
2023-01-08T05:03:11.258Z,101866.44
2023-01-08T05:08:10.486Z,101865.31
2023-01-08T05:13:08.326Z,101878.97
2023-01-08T05:18:06.920Z,101878.81
2023-01-08T05:23:04.821Z,101887.28
2023-01-08T05:28:04.047Z,101898.34
2023-01-08T05:33:02.340Z,101874.31
2023-01-08T05:38:00.906Z,101888.09
2023-01-08T05:43:00.114Z,101896.69
2023-01-08T05:47:59.323Z,101901.16
2023-01-08T05:52:57.146Z,101895.31
2023-01-08T05:57:54.942Z,101894.59
2023-01-08T06:02:52.905Z,101893.13
2023-01-08T06:07:52.190Z,101894.03
2023-01-08T06:12:50.046Z,101910.25
2023-01-08T06:17:47.879Z,101910.31
2023-01-08T06:22:45.788Z,101913.97
2023-01-08T06:27:45.018Z,101905.56
2023-01-08T06:32:42.838Z,101917.75
2023-01-08T06:37:40.719Z,101914.91
2023-01-08T06:42:38.581Z,101914.47
2023-01-08T06:47:37.889Z,101917.91
2023-01-08T06:52:35.927Z,101926.25
2023-01-08T06:57:33.754Z,101917.28
2023-01-08T07:02:31.738Z,101917.34
2023-01-08T07:07:31.161Z,101924.09
2023-01-08T07:12:29.098Z,101926.00
2023-01-08T07:17:27.017Z,101921.22
2023-01-08T07:22:27.024Z,101923.81
2023-01-08T07:27:35.135Z,101923.16
2023-01-08T07:32:33.089Z,101913.72
2023-01-08T07:37:31.113Z,101917.13
2023-01-08T07:42:30.699Z,101917.59
2023-01-08T07:47:28.582Z,101919.53
2023-01-08T07:52:26.611Z,101925.03
2023-01-08T07:57:24.569Z,101925.75
2023-01-08T08:02:24.018Z,101925.25
2023-01-08T08:07:21.949Z,101926.09
2023-01-08T08:12:19.814Z,101926.88
2023-01-08T08:17:17.652Z,101924.16
2023-01-08T08:22:16.881Z,101923.56
2023-01-08T08:27:16.885Z,101928.88
2023-01-08T08:32:14.889Z,101922.66
2023-01-08T08:37:13.071Z,101917.91
2023-01-08T08:42:12.224Z,101919.50
2023-01-08T08:47:10.376Z,101923.09
2023-01-08T08:52:08.435Z,101921.09
2023-01-08T08:57:06.252Z,101919.41
2023-01-08T09:02:07.283Z,101912.19
2023-01-08T09:07:05.271Z,101907.81
2023-01-08T09:12:05.637Z,101897.47
2023-01-08T09:17:03.460Z,101886.94
2023-01-08T09:22:04.183Z,101870.97
2023-01-08T09:27:02.041Z,101867.78
2023-01-08T09:32:02.175Z,101872.00
2023-01-08T09:37:04.427Z,101851.94
2023-01-08T09:42:03.548Z,101856.59
2023-01-08T09:47:01.661Z,101849.34
2023-01-08T09:52:00.315Z,101845.94
2023-01-08T09:57:00.361Z,101848.22
2023-01-08T10:01:58.873Z,101843.81
2023-01-08T10:07:00.497Z,101827.34
2023-01-08T10:12:06.839Z,101824.47
2023-01-08T10:17:11.468Z,101824.69
2023-01-08T10:22:13.178Z,101807.88
2023-01-08T10:27:15.153Z,101805.09
2023-01-08T10:32:16.056Z,101797.94
2023-01-08T10:37:19.124Z,101796.50
2023-01-08T10:42:19.325Z,101789.19
2023-01-08T10:47:18.298Z,101783.56
2023-01-08T10:52:31.833Z,101772.25
2023-01-08T10:57:32.816Z,101770.78
2023-01-08T11:02:38.408Z,101768.22
2023-01-08T11:07:37.262Z,101759.69
2023-01-08T11:12:40.828Z,101752.00
2023-01-08T11:17:38.714Z,101748.38
2023-01-08T11:22:36.592Z,101744.22
2023-01-08T11:27:38.120Z,101748.75
2023-01-08T11:32:42.323Z,101745.88
2023-01-08T11:37:41.478Z,101750.78
2023-01-08T11:42:54.108Z,101746.69
2023-01-08T11:48:01.289Z,101731.06
2023-01-08T11:53:16.034Z,101738.28
2023-01-08T11:58:23.100Z,101740.41
2023-01-08T12:03:28.015Z,101741.41
2023-01-08T12:08:29.234Z,101729.09
2023-01-08T12:13:37.973Z,101725.56
2023-01-08T12:18:49.185Z,101725.84
2023-01-08T12:24:00.200Z,101726.81
2023-01-08T12:29:14.006Z,101718.94
2023-01-08T12:34:14.007Z,101720.22
2023-01-08T12:39:14.113Z,101716.63
2023-01-08T12:44:13.012Z,101719.09
2023-01-08T12:49:12.288Z,101717.31
2023-01-08T12:54:20.402Z,101714.63
2023-01-08T12:59:29.715Z,101705.94
2023-01-08T13:04:27.561Z,101711.38
2023-01-08T13:09:27.838Z,101702.88
2023-01-08T13:14:27.523Z,101714.22
2023-01-08T13:19:26.740Z,101706.69
2023-01-08T13:24:30.168Z,101716.88
2023-01-08T13:29:46.514Z,101717.84
2023-01-08T13:34:44.414Z,101711.94
2023-01-08T13:39:43.679Z,101714.31
2023-01-08T13:44:43.406Z,101724.31
2023-01-08T13:49:44.205Z,101717.59
2023-01-08T13:54:44.278Z,101705.75
2023-01-08T13:59:43.041Z,101711.47
2023-01-08T14:04:40.915Z,101702.78
2023-01-08T14:09:38.741Z,101714.69
2023-01-08T14:14:41.814Z,101709.25
2023-01-08T14:19:41.972Z,101702.31
2023-01-08T14:24:39.823Z,101704.31
2023-01-08T14:29:46.308Z,101699.28
2023-01-08T14:34:45.104Z,101695.34
2023-01-08T14:39:43.405Z,101694.84
2023-01-08T14:44:46.125Z,101692.16
2023-01-08T14:49:44.871Z,101695.09
2023-01-08T14:54:42.987Z,101696.03
2023-01-08T14:59:42.317Z,101695.00
2023-01-08T15:04:40.194Z,101692.75
2023-01-08T15:09:38.081Z,101696.03
2023-01-08T15:14:37.143Z,101697.25
2023-01-08T15:19:39.675Z,101697.13
2023-01-08T15:24:41.948Z,101697.84
2023-01-08T15:29:40.385Z,101697.31
2023-01-08T15:34:39.585Z,101699.78
2023-01-08T15:39:37.533Z,101686.31
2023-01-08T15:44:39.675Z,101680.53
2023-01-08T15:49:37.664Z,101681.88
2023-01-08T15:54:38.325Z,101691.00
2023-01-08T15:59:37.862Z,101684.63
2023-01-08T16:04:35.753Z,101689.31
2023-01-08T16:09:33.595Z,101694.34
2023-01-08T16:14:34.326Z,101698.13
2023-01-08T16:19:32.607Z,101701.31
2023-01-08T16:24:30.455Z,101691.00
2023-01-08T16:29:28.470Z,101690.91
2023-01-08T16:34:27.676Z,101696.88
2023-01-08T16:39:25.520Z,101702.31
2023-01-08T16:44:26.294Z,101706.00
2023-01-08T16:49:24.927Z,101700.88
2023-01-08T16:54:24.131Z,101706.13
2023-01-08T16:59:24.007Z,101702.72
2023-01-08T17:04:22.117Z,101700.38
2023-01-08T17:09:20.043Z,101703.25
2023-01-08T17:14:19.335Z,101694.59
2023-01-08T17:19:17.507Z,101693.34
2023-01-08T17:24:15.425Z,101689.44
2023-01-08T17:29:13.360Z,101692.25
2023-01-08T17:34:14.452Z,101695.72
2023-01-08T17:39:12.707Z,101686.16
2023-01-08T17:44:12.881Z,101681.91
2023-01-08T17:49:11.948Z,101676.56
2023-01-08T17:54:12.813Z,101670.53
2023-01-08T17:59:11.802Z,101680.13
2023-01-08T18:04:09.689Z,101673.19
2023-01-08T18:09:09.680Z,101674.13
2023-01-08T18:14:09.073Z,101675.03
2023-01-08T18:19:06.885Z,101677.63
2023-01-08T18:24:04.881Z,101680.16
2023-01-08T18:29:02.990Z,101673.28
2023-01-08T18:34:03.852Z,101682.06
2023-01-08T18:39:01.815Z,101676.84
2023-01-08T18:43:59.822Z,101675.25
2023-01-08T18:48:57.749Z,101678.78
2023-01-08T18:53:57.012Z,101687.31
2023-01-08T18:58:54.872Z,101690.97
2023-01-08T19:03:52.790Z,101698.00
2023-01-08T19:08:56.218Z,101693.50
2023-01-08T19:13:57.699Z,101689.28
2023-01-08T19:18:55.808Z,101697.91
2023-01-08T19:23:56.444Z,101691.91
2023-01-08T19:28:54.327Z,101695.81
2023-01-08T19:33:54.094Z,101698.44
2023-01-08T19:38:52.196Z,101702.59
2023-01-08T19:43:50.033Z,101692.88
2023-01-08T19:48:47.920Z,101696.63
2023-01-08T19:53:47.210Z,101700.81
2023-01-08T19:58:45.298Z,101684.47
2023-01-08T20:03:43.907Z,101683.75
2023-01-08T20:08:41.774Z,101681.16
2023-01-08T20:13:41.283Z,101682.13
2023-01-08T20:18:39.376Z,101676.00
2023-01-08T20:23:37.864Z,101676.81
2023-01-08T20:28:36.422Z,101689.91
2023-01-08T20:33:36.141Z,101686.56
2023-01-08T20:38:34.062Z,101694.28
2023-01-08T20:43:31.915Z,101687.38
2023-01-08T20:48:32.052Z,101688.16
2023-01-08T20:53:35.069Z,101684.78
2023-01-08T20:58:33.261Z,101695.00
2023-01-08T21:03:31.196Z,101695.09
2023-01-08T21:08:29.045Z,101685.72
2023-01-08T21:13:28.719Z,101693.47
2023-01-08T21:18:26.913Z,101710.66
2023-01-08T21:23:24.789Z,101705.53
2023-01-08T21:28:22.618Z,101711.53
2023-01-08T21:33:22.092Z,101712.41
2023-01-08T21:38:19.913Z,101710.59
2023-01-08T21:43:35.002Z,101713.91
2023-01-08T21:48:34.259Z,101722.56
2023-01-08T21:53:36.461Z,101713.72
2023-01-08T21:58:34.640Z,101706.03
2023-01-08T22:03:32.460Z,101700.75
2023-01-08T22:08:32.261Z,101702.63
2023-01-08T22:13:30.152Z,101702.84
2023-01-08T22:18:28.040Z,101705.59
2023-01-08T22:23:25.848Z,101705.66
2023-01-08T22:28:25.350Z,101708.28
2023-01-08T22:33:23.300Z,101707.38
2023-01-08T22:38:21.137Z,101701.44
2023-01-08T22:43:20.550Z,101692.78
2023-01-08T22:48:19.742Z,101698.03
2023-01-08T22:53:17.779Z,101695.50
2023-01-08T22:58:16.143Z,101683.59
2023-01-08T23:03:14.356Z,101695.66
2023-01-08T23:08:13.747Z,101692.19
2023-01-08T23:13:11.673Z,101683.59
2023-01-08T23:18:10.036Z,101686.19
2023-01-08T23:23:07.856Z,101692.22
2023-01-08T23:28:07.428Z,101686.22
2023-01-08T23:33:05.259Z,101690.50
2023-01-08T23:38:03.099Z,101694.78
2023-01-08T23:43:00.926Z,101695.63
2023-01-08T23:48:00.155Z,101683.59
2023-01-08T23:52:59.091Z,101679.28
2023-01-08T23:57:57.547Z,101684.41
